sensor_id;sensor_type;location;lat;lon;timestamp;pressure;altitude;pressure_sealevel;temperature
15575;BMP180;7888;46.748;8.102;2022-11-15T00:00:55;93922.00;;;12.40
15575;BMP180;7888;46.748;8.102;2022-11-15T00:03:24;93925.00;;;12.40
15575;BMP180;7888;46.748;8.102;2022-11-15T00:05:50;93913.00;;;12.40
15575;BMP180;7888;46.748;8.102;2022-11-15T00:08:17;93915.00;;;12.50
15575;BMP180;7888;46.748;8.102;2022-11-15T00:10:53;93915.00;;;12.40
15575;BMP180;7888;46.748;8.102;2022-11-15T00:13:19;93904.00;;;12.50
15575;BMP180;7888;46.748;8.102;2022-11-15T00:15:45;93915.00;;;12.50
15575;BMP180;7888;46.748;8.102;2022-11-15T00:18:15;93909.00;;;12.40
15575;BMP180;7888;46.748;8.102;2022-11-15T00:20:41;93906.00;;;12.50
15575;BMP180;7888;46.748;8.102;2022-11-15T00:23:08;93893.00;;;12.40
15575;BMP180;7888;46.748;8.102;2022-11-15T00:25:34;93894.00;;;12.40
15575;BMP180;7888;46.748;8.102;2022-11-15T00:28:01;93891.00;;;12.40
15575;BMP180;7888;46.748;8.102;2022-11-15T00:30:28;93891.00;;;12.30
15575;BMP180;7888;46.748;8.102;2022-11-15T00:32:54;93887.00;;;12.40
15575;BMP180;7888;46.748;8.102;2022-11-15T00:35:21;93879.00;;;12.30
15575;BMP180;7888;46.748;8.102;2022-11-15T00:37:47;93876.00;;;12.30
15575;BMP180;7888;46.748;8.102;2022-11-15T00:40:14;93875.00;;;12.40
15575;BMP180;7888;46.748;8.102;2022-11-15T00:42:41;93882.00;;;12.40
15575;BMP180;7888;46.748;8.102;2022-11-15T00:45:08;93884.00;;;12.40
15575;BMP180;7888;46.748;8.102;2022-11-15T00:47:34;93889.00;;;12.50
15575;BMP180;7888;46.748;8.102;2022-11-15T00:50:00;93891.00;;;12.50
15575;BMP180;7888;46.748;8.102;2022-11-15T00:52:26;93894.00;;;12.50
15575;BMP180;7888;46.748;8.102;2022-11-15T00:54:51;93898.00;;;12.50
15575;BMP180;7888;46.748;8.102;2022-11-15T00:57:17;93905.00;;;12.50
15575;BMP180;7888;46.748;8.102;2022-11-15T00:59:43;93892.00;;;12.50
15575;BMP180;7888;46.748;8.102;2022-11-15T01:02:09;93893.00;;;12.50
15575;BMP180;7888;46.748;8.102;2022-11-15T01:04:35;93891.00;;;12.50
15575;BMP180;7888;46.748;8.102;2022-11-15T01:07:01;93882.00;;;12.60
15575;BMP180;7888;46.748;8.102;2022-11-15T01:09:26;93866.00;;;12.60
15575;BMP180;7888;46.748;8.102;2022-11-15T01:11:52;93869.00;;;12.60
15575;BMP180;7888;46.748;8.102;2022-11-15T01:14:18;93870.00;;;12.60
15575;BMP180;7888;46.748;8.102;2022-11-15T01:16:44;93864.00;;;12.60
15575;BMP180;7888;46.748;8.102;2022-11-15T01:19:10;93869.00;;;12.60
15575;BMP180;7888;46.748;8.102;2022-11-15T01:21:36;93872.00;;;12.60
15575;BMP180;7888;46.748;8.102;2022-11-15T01:24:02;93874.00;;;12.60
15575;BMP180;7888;46.748;8.102;2022-11-15T01:26:28;93867.00;;;12.60
15575;BMP180;7888;46.748;8.102;2022-11-15T01:28:54;93869.00;;;12.70
15575;BMP180;7888;46.748;8.102;2022-11-15T01:31:21;93866.00;;;12.70
15575;BMP180;7888;46.748;8.102;2022-11-15T01:33:48;93872.00;;;12.70
15575;BMP180;7888;46.748;8.102;2022-11-15T01:36:18;93873.00;;;12.70
15575;BMP180;7888;46.748;8.102;2022-11-15T01:38:44;93861.00;;;12.80
15575;BMP180;7888;46.748;8.102;2022-11-15T01:41:23;93847.00;;;12.80
15575;BMP180;7888;46.748;8.102;2022-11-15T01:43:53;93844.00;;;12.80
15575;BMP180;7888;46.748;8.102;2022-11-15T01:48:53;93851.00;;;12.80
15575;BMP180;7888;46.748;8.102;2022-11-15T01:51:25;93852.00;;;12.80
15575;BMP180;7888;46.748;8.102;2022-11-15T01:53:57;93846.00;;;12.80
15575;BMP180;7888;46.748;8.102;2022-11-15T01:56:29;93847.00;;;12.80
15575;BMP180;7888;46.748;8.102;2022-11-15T01:58:58;93854.00;;;12.80
15575;BMP180;7888;46.748;8.102;2022-11-15T02:01:28;93830.00;;;12.80
15575;BMP180;7888;46.748;8.102;2022-11-15T02:04:03;93844.00;;;12.80
15575;BMP180;7888;46.748;8.102;2022-11-15T02:06:32;93837.00;;;12.80
15575;BMP180;7888;46.748;8.102;2022-11-15T02:08:59;93820.00;;;12.80
15575;BMP180;7888;46.748;8.102;2022-11-15T02:11:26;93809.00;;;12.80
15575;BMP180;7888;46.748;8.102;2022-11-15T02:13:52;93798.00;;;12.80
15575;BMP180;7888;46.748;8.102;2022-11-15T02:16:58;93799.00;;;12.70
15575;BMP180;7888;46.748;8.102;2022-11-15T02:29:06;93783.00;;;12.30
15575;BMP180;7888;46.748;8.102;2022-11-15T02:32:10;93778.00;;;12.30
15575;BMP180;7888;46.748;8.102;2022-11-15T02:35:00;93760.00;;;12.30
15575;BMP180;7888;46.748;8.102;2022-11-15T02:37:57;93768.00;;;12.30
15575;BMP180;7888;46.748;8.102;2022-11-15T02:43:11;93771.00;;;12.40
15575;BMP180;7888;46.748;8.102;2022-11-15T02:49:18;93768.00;;;12.40
15575;BMP180;7888;46.748;8.102;2022-11-15T02:51:47;93774.00;;;12.40
15575;BMP180;7888;46.748;8.102;2022-11-15T02:54:20;93773.00;;;12.40
15575;BMP180;7888;46.748;8.102;2022-11-15T02:56:49;93779.00;;;12.40
15575;BMP180;7888;46.748;8.102;2022-11-15T02:59:56;93772.00;;;12.40
15575;BMP180;7888;46.748;8.102;2022-11-15T03:08:31;93756.00;;;12.10
15575;BMP180;7888;46.748;8.102;2022-11-15T03:11:09;93768.00;;;12.10
15575;BMP180;7888;46.748;8.102;2022-11-15T03:19:50;93730.00;;;12.10
15575;BMP180;7888;46.748;8.102;2022-11-15T03:22:21;93750.00;;;12.10
15575;BMP180;7888;46.748;8.102;2022-11-15T03:24:56;93733.00;;;12.10
15575;BMP180;7888;46.748;8.102;2022-11-15T03:27:29;93750.00;;;12.10
15575;BMP180;7888;46.748;8.102;2022-11-15T03:30:02;93739.00;;;12.10
15575;BMP180;7888;46.748;8.102;2022-11-15T03:32:34;93742.00;;;12.10
15575;BMP180;7888;46.748;8.102;2022-11-15T03:35:09;93746.00;;;12.10
15575;BMP180;7888;46.748;8.102;2022-11-15T03:37:48;93743.00;;;12.00
15575;BMP180;7888;46.748;8.102;2022-11-15T03:40:17;93736.00;;;12.20
15575;BMP180;7888;46.748;8.102;2022-11-15T03:42:59;93741.00;;;12.10
15575;BMP180;7888;46.748;8.102;2022-11-15T03:45:41;93736.00;;;12.10
15575;BMP180;7888;46.748;8.102;2022-11-15T03:48:20;93739.00;;;12.10
15575;BMP180;7888;46.748;8.102;2022-11-15T03:50:48;93730.00;;;12.10
15575;BMP180;7888;46.748;8.102;2022-11-15T03:53:14;93700.00;;;12.20
15575;BMP180;7888;46.748;8.102;2022-11-15T03:55:40;93725.00;;;12.20
15575;BMP180;7888;46.748;8.102;2022-11-15T03:58:06;93736.00;;;12.20
15575;BMP180;7888;46.748;8.102;2022-11-15T04:00:32;93725.00;;;12.20
15575;BMP180;7888;46.748;8.102;2022-11-15T04:02:58;93732.00;;;12.20
15575;BMP180;7888;46.748;8.102;2022-11-15T04:05:24;93743.00;;;12.20
15575;BMP180;7888;46.748;8.102;2022-11-15T04:07:50;93725.00;;;12.20
15575;BMP180;7888;46.748;8.102;2022-11-15T04:10:16;93725.00;;;12.20
15575;BMP180;7888;46.748;8.102;2022-11-15T04:12:45;93728.00;;;12.20
15575;BMP180;7888;46.748;8.102;2022-11-15T04:15:18;93724.00;;;12.20
15575;BMP180;7888;46.748;8.102;2022-11-15T04:17:52;93732.00;;;12.10
15575;BMP180;7888;46.748;8.102;2022-11-15T04:20:27;93732.00;;;12.10
15575;BMP180;7888;46.748;8.102;2022-11-15T04:23:31;93718.00;;;12.10
15575;BMP180;7888;46.748;8.102;2022-11-15T04:26:33;93712.00;;;12.10
15575;BMP180;7888;46.748;8.102;2022-11-15T04:28:59;93716.00;;;12.10
15575;BMP180;7888;46.748;8.102;2022-11-15T04:32:05;93706.00;;;12.00
15575;BMP180;7888;46.748;8.102;2022-11-15T04:34:32;93717.00;;;12.00
15575;BMP180;7888;46.748;8.102;2022-11-15T04:36:58;93715.00;;;11.90
15575;BMP180;7888;46.748;8.102;2022-11-15T04:39:41;93722.00;;;12.00
15575;BMP180;7888;46.748;8.102;2022-11-15T04:42:08;93715.00;;;12.00
15575;BMP180;7888;46.748;8.102;2022-11-15T04:44:34;93707.00;;;11.90
15575;BMP180;7888;46.748;8.102;2022-11-15T04:47:01;93709.00;;;11.90
15575;BMP180;7888;46.748;8.102;2022-11-15T04:49:27;93702.00;;;11.90
15575;BMP180;7888;46.748;8.102;2022-11-15T04:51:53;93699.00;;;11.90
15575;BMP180;7888;46.748;8.102;2022-11-15T04:54:19;93692.00;;;11.90
15575;BMP180;7888;46.748;8.102;2022-11-15T04:56:45;93669.00;;;11.90
15575;BMP180;7888;46.748;8.102;2022-11-15T04:59:10;93689.00;;;11.90
15575;BMP180;7888;46.748;8.102;2022-11-15T05:01:36;93686.00;;;11.90
15575;BMP180;7888;46.748;8.102;2022-11-15T05:04:02;93683.00;;;11.80
15575;BMP180;7888;46.748;8.102;2022-11-15T05:06:51;93658.00;;;11.70
15575;BMP180;7888;46.748;8.102;2022-11-15T05:09:18;93685.00;;;11.80
15575;BMP180;7888;46.748;8.102;2022-11-15T05:11:45;93673.00;;;11.80
15575;BMP180;7888;46.748;8.102;2022-11-15T05:14:12;93647.00;;;11.80
15575;BMP180;7888;46.748;8.102;2022-11-15T05:16:39;93650.00;;;11.80
15575;BMP180;7888;46.748;8.102;2022-11-15T05:19:06;93655.00;;;11.80
15575;BMP180;7888;46.748;8.102;2022-11-15T05:21:32;93673.00;;;11.70
15575;BMP180;7888;46.748;8.102;2022-11-15T05:23:59;93653.00;;;11.70
15575;BMP180;7888;46.748;8.102;2022-11-15T05:26:25;93660.00;;;11.70
15575;BMP180;7888;46.748;8.102;2022-11-15T05:28:57;93642.00;;;11.70
15575;BMP180;7888;46.748;8.102;2022-11-15T05:31:25;93670.00;;;11.70
15575;BMP180;7888;46.748;8.102;2022-11-15T05:33:51;93659.00;;;11.70
15575;BMP180;7888;46.748;8.102;2022-11-15T05:36:37;93634.00;;;11.70
15575;BMP180;7888;46.748;8.102;2022-11-15T05:39:06;93656.00;;;11.70
15575;BMP180;7888;46.748;8.102;2022-11-15T05:42:07;93656.00;;;11.70
15575;BMP180;7888;46.748;8.102;2022-11-15T05:44:38;93631.00;;;11.60
15575;BMP180;7888;46.748;8.102;2022-11-15T05:47:10;93640.00;;;11.60
15575;BMP180;7888;46.748;8.102;2022-11-15T05:49:40;93658.00;;;11.60
15575;BMP180;7888;46.748;8.102;2022-11-15T05:52:09;93652.00;;;11.60
15575;BMP180;7888;46.748;8.102;2022-11-15T05:54:37;93657.00;;;11.60
15575;BMP180;7888;46.748;8.102;2022-11-15T05:57:04;93656.00;;;11.60
15575;BMP180;7888;46.748;8.102;2022-11-15T05:59:32;93656.00;;;11.60
15575;BMP180;7888;46.748;8.102;2022-11-15T06:01:58;93652.00;;;11.60
15575;BMP180;7888;46.748;8.102;2022-11-15T06:04:24;93645.00;;;11.60
15575;BMP180;7888;46.748;8.102;2022-11-15T06:06:50;93635.00;;;11.60
15575;BMP180;7888;46.748;8.102;2022-11-15T06:09:16;93654.00;;;11.60
15575;BMP180;7888;46.748;8.102;2022-11-15T06:11:42;93648.00;;;11.60
15575;BMP180;7888;46.748;8.102;2022-11-15T06:14:08;93656.00;;;11.50
15575;BMP180;7888;46.748;8.102;2022-11-15T06:16:34;93650.00;;;11.50
15575;BMP180;7888;46.748;8.102;2022-11-15T06:18:59;93648.00;;;11.50
15575;BMP180;7888;46.748;8.102;2022-11-15T06:21:25;93657.00;;;11.50
15575;BMP180;7888;46.748;8.102;2022-11-15T06:23:53;93654.00;;;11.40
15575;BMP180;7888;46.748;8.102;2022-11-15T06:26:19;93658.00;;;11.40
15575;BMP180;7888;46.748;8.102;2022-11-15T06:28:45;93651.00;;;11.40
15575;BMP180;7888;46.748;8.102;2022-11-15T06:31:11;93650.00;;;11.40
15575;BMP180;7888;46.748;8.102;2022-11-15T06:33:39;93650.00;;;11.40
15575;BMP180;7888;46.748;8.102;2022-11-15T06:36:08;93648.00;;;11.40
15575;BMP180;7888;46.748;8.102;2022-11-15T06:38:36;93651.00;;;11.40
15575;BMP180;7888;46.748;8.102;2022-11-15T06:41:09;93654.00;;;11.30
15575;BMP180;7888;46.748;8.102;2022-11-15T06:43:36;93651.00;;;11.40
15575;BMP180;7888;46.748;8.102;2022-11-15T06:46:04;93652.00;;;11.40
15575;BMP180;7888;46.748;8.102;2022-11-15T06:48:32;93649.00;;;11.40
15575;BMP180;7888;46.748;8.102;2022-11-15T06:51:00;93636.00;;;11.40
15575;BMP180;7888;46.748;8.102;2022-11-15T06:53:28;93655.00;;;11.40
15575;BMP180;7888;46.748;8.102;2022-11-15T06:55:59;93656.00;;;11.40
15575;BMP180;7888;46.748;8.102;2022-11-15T06:58:26;93652.00;;;11.50
15575;BMP180;7888;46.748;8.102;2022-11-15T07:00:52;93659.00;;;11.50
15575;BMP180;7888;46.748;8.102;2022-11-15T07:03:18;93648.00;;;11.50
15575;BMP180;7888;46.748;8.102;2022-11-15T07:05:55;93660.00;;;11.50
15575;BMP180;7888;46.748;8.102;2022-11-15T07:08:23;93650.00;;;11.50
15575;BMP180;7888;46.748;8.102;2022-11-15T07:10:49;93655.00;;;11.50
15575;BMP180;7888;46.748;8.102;2022-11-15T07:13:15;93622.00;;;11.50
15575;BMP180;7888;46.748;8.102;2022-11-15T07:15:41;93637.00;;;11.60
15575;BMP180;7888;46.748;8.102;2022-11-15T07:18:07;93630.00;;;11.60
15575;BMP180;7888;46.748;8.102;2022-11-15T07:20:33;93655.00;;;11.60
15575;BMP180;7888;46.748;8.102;2022-11-15T07:23:04;93666.00;;;11.60
15575;BMP180;7888;46.748;8.102;2022-11-15T07:25:31;93654.00;;;11.60
15575;BMP180;7888;46.748;8.102;2022-11-15T07:27:58;93645.00;;;11.60
15575;BMP180;7888;46.748;8.102;2022-11-15T07:30:26;93672.00;;;11.60
15575;BMP180;7888;46.748;8.102;2022-11-15T07:32:57;93679.00;;;11.70
15575;BMP180;7888;46.748;8.102;2022-11-15T07:35:25;93678.00;;;11.60
15575;BMP180;7888;46.748;8.102;2022-11-15T07:37:59;93674.00;;;11.60
15575;BMP180;7888;46.748;8.102;2022-11-15T07:40:28;93675.00;;;11.80
15575;BMP180;7888;46.748;8.102;2022-11-15T07:43:04;93672.00;;;11.80
15575;BMP180;7888;46.748;8.102;2022-11-15T07:45:31;93655.00;;;11.90
15575;BMP180;7888;46.748;8.102;2022-11-15T07:47:59;93652.00;;;11.90
15575;BMP180;7888;46.748;8.102;2022-11-15T07:50:26;93650.00;;;11.90
15575;BMP180;7888;46.748;8.102;2022-11-15T07:52:56;93635.00;;;11.90
15575;BMP180;7888;46.748;8.102;2022-11-15T07:55:24;93645.00;;;12.00
15575;BMP180;7888;46.748;8.102;2022-11-15T07:57:50;93648.00;;;12.00
15575;BMP180;7888;46.748;8.102;2022-11-15T08:00:17;93643.00;;;12.00
15575;BMP180;7888;46.748;8.102;2022-11-15T08:02:43;93654.00;;;12.10
15575;BMP180;7888;46.748;8.102;2022-11-15T08:05:09;93657.00;;;12.10
15575;BMP180;7888;46.748;8.102;2022-11-15T08:07:34;93668.00;;;12.20
15575;BMP180;7888;46.748;8.102;2022-11-15T08:10:01;93636.00;;;12.20
15575;BMP180;7888;46.748;8.102;2022-11-15T08:12:28;93631.00;;;12.30
15575;BMP180;7888;46.748;8.102;2022-11-15T08:14:56;93640.00;;;12.30
15575;BMP180;7888;46.748;8.102;2022-11-15T08:17:24;93647.00;;;12.30
15575;BMP180;7888;46.748;8.102;2022-11-15T08:19:50;93650.00;;;12.40
15575;BMP180;7888;46.748;8.102;2022-11-15T08:22:16;93640.00;;;12.50
15575;BMP180;7888;46.748;8.102;2022-11-15T08:24:43;93637.00;;;12.50
15575;BMP180;7888;46.748;8.102;2022-11-15T08:27:09;93612.00;;;12.60
15575;BMP180;7888;46.748;8.102;2022-11-15T08:29:44;93633.00;;;12.60
15575;BMP180;7888;46.748;8.102;2022-11-15T08:32:11;93643.00;;;12.60
15575;BMP180;7888;46.748;8.102;2022-11-15T08:34:38;93656.00;;;12.60
15575;BMP180;7888;46.748;8.102;2022-11-15T08:37:04;93649.00;;;12.60
15575;BMP180;7888;46.748;8.102;2022-11-15T08:39:31;93633.00;;;12.70
15575;BMP180;7888;46.748;8.102;2022-11-15T08:41:57;93671.00;;;12.70
15575;BMP180;7888;46.748;8.102;2022-11-15T08:44:23;93664.00;;;12.80
15575;BMP180;7888;46.748;8.102;2022-11-15T08:46:50;93668.00;;;12.80
15575;BMP180;7888;46.748;8.102;2022-11-15T08:49:19;93678.00;;;12.80
15575;BMP180;7888;46.748;8.102;2022-11-15T08:51:45;93666.00;;;12.90
15575;BMP180;7888;46.748;8.102;2022-11-15T08:54:11;93654.00;;;12.90
15575;BMP180;7888;46.748;8.102;2022-11-15T08:56:37;93666.00;;;12.90
15575;BMP180;7888;46.748;8.102;2022-11-15T08:59:03;93658.00;;;12.90
15575;BMP180;7888;46.748;8.102;2022-11-15T09:01:29;93645.00;;;13.00
15575;BMP180;7888;46.748;8.102;2022-11-15T09:03:55;93658.00;;;13.00
15575;BMP180;7888;46.748;8.102;2022-11-15T09:06:20;93656.00;;;13.10
15575;BMP180;7888;46.748;8.102;2022-11-15T09:08:46;93663.00;;;13.20
15575;BMP180;7888;46.748;8.102;2022-11-15T09:11:12;93674.00;;;13.20
15575;BMP180;7888;46.748;8.102;2022-11-15T09:13:38;93675.00;;;13.30
15575;BMP180;7888;46.748;8.102;2022-11-15T09:16:05;93674.00;;;13.30
15575;BMP180;7888;46.748;8.102;2022-11-15T09:18:31;93677.00;;;13.40
15575;BMP180;7888;46.748;8.102;2022-11-15T09:20:59;93678.00;;;13.40
15575;BMP180;7888;46.748;8.102;2022-11-15T09:23:26;93654.00;;;13.50
15575;BMP180;7888;46.748;8.102;2022-11-15T09:25:58;93670.00;;;13.50
15575;BMP180;7888;46.748;8.102;2022-11-15T09:28:25;93660.00;;;13.60
15575;BMP180;7888;46.748;8.102;2022-11-15T09:30:51;93675.00;;;13.60
15575;BMP180;7888;46.748;8.102;2022-11-15T09:33:17;93668.00;;;13.60
15575;BMP180;7888;46.748;8.102;2022-11-15T09:35:43;93658.00;;;13.60
15575;BMP180;7888;46.748;8.102;2022-11-15T09:38:09;93659.00;;;13.60
15575;BMP180;7888;46.748;8.102;2022-11-15T09:40:37;93653.00;;;13.60
15575;BMP180;7888;46.748;8.102;2022-11-15T09:43:33;93673.00;;;13.60
15575;BMP180;7888;46.748;8.102;2022-11-15T09:48:55;93677.00;;;13.70
15575;BMP180;7888;46.748;8.102;2022-11-15T09:51:34;93652.00;;;13.70
15575;BMP180;7888;46.748;8.102;2022-11-15T09:54:23;93649.00;;;13.70
15575;BMP180;7888;46.748;8.102;2022-11-15T09:56:52;93666.00;;;13.80
15575;BMP180;7888;46.748;8.102;2022-11-15T10:04:36;93643.00;;;13.80
15575;BMP180;7888;46.748;8.102;2022-11-15T10:09:51;93644.00;;;13.80
15575;BMP180;7888;46.748;8.102;2022-11-15T10:12:18;93619.00;;;13.90
15575;BMP180;7888;46.748;8.102;2022-11-15T10:14:49;93648.00;;;13.90
15575;BMP180;7888;46.748;8.102;2022-11-15T10:20:29;93623.00;;;13.90
15575;BMP180;7888;46.748;8.102;2022-11-15T10:22:59;93642.00;;;13.90
15575;BMP180;7888;46.748;8.102;2022-11-15T10:25:28;93617.00;;;14.00
15575;BMP180;7888;46.748;8.102;2022-11-15T10:28:11;93633.00;;;14.00
15575;BMP180;7888;46.748;8.102;2022-11-15T10:30:59;93622.00;;;14.00
15575;BMP180;7888;46.748;8.102;2022-11-15T10:33:39;93616.00;;;14.00
15575;BMP180;7888;46.748;8.102;2022-11-15T10:39:00;93603.00;;;14.10
15575;BMP180;7888;46.748;8.102;2022-11-15T10:46:36;93596.00;;;14.30
15575;BMP180;7888;46.748;8.102;2022-11-15T10:49:27;93598.00;;;14.30
15575;BMP180;7888;46.748;8.102;2022-11-15T10:52:23;93590.00;;;14.40
15575;BMP180;7888;46.748;8.102;2022-11-15T10:55:05;93576.00;;;14.40
15575;BMP180;7888;46.748;8.102;2022-11-15T10:57:37;93588.00;;;14.50
15575;BMP180;7888;46.748;8.102;2022-11-15T11:00:32;93584.00;;;14.50
15575;BMP180;7888;46.748;8.102;2022-11-15T11:03:04;93575.00;;;14.60
15575;BMP180;7888;46.748;8.102;2022-11-15T11:05:37;93550.00;;;14.70
15575;BMP180;7888;46.748;8.102;2022-11-15T11:08:21;93562.00;;;14.70
15575;BMP180;7888;46.748;8.102;2022-11-15T11:10:59;93554.00;;;14.80
15575;BMP180;7888;46.748;8.102;2022-11-15T11:13:29;93563.00;;;14.80
15575;BMP180;7888;46.748;8.102;2022-11-15T11:22:00;93542.00;;;14.90
15575;BMP180;7888;46.748;8.102;2022-11-15T11:24:54;93536.00;;;15.00
15575;BMP180;7888;46.748;8.102;2022-11-15T11:33:31;93518.00;;;15.10
15575;BMP180;7888;46.748;8.102;2022-11-15T11:47:32;93501.00;;;15.40
15575;BMP180;7888;46.748;8.102;2022-11-15T11:50:26;93499.00;;;15.40
15575;BMP180;7888;46.748;8.102;2022-11-15T11:56:03;93503.00;;;15.60
15575;BMP180;7888;46.748;8.102;2022-11-15T11:58:42;93498.00;;;15.60
15575;BMP180;7888;46.748;8.102;2022-11-15T12:01:20;93485.00;;;15.70
15575;BMP180;7888;46.748;8.102;2022-11-15T12:04:23;93481.00;;;15.80
15575;BMP180;7888;46.748;8.102;2022-11-15T12:06:54;93473.00;;;15.80
15575;BMP180;7888;46.748;8.102;2022-11-15T12:09:36;93466.00;;;15.80
15575;BMP180;7888;46.748;8.102;2022-11-15T12:15:22;93444.00;;;15.90
15575;BMP180;7888;46.748;8.102;2022-11-15T12:17:50;93464.00;;;16.00
15575;BMP180;7888;46.748;8.102;2022-11-15T12:20:30;93458.00;;;16.00
15575;BMP180;7888;46.748;8.102;2022-11-15T12:23:05;93458.00;;;16.10
15575;BMP180;7888;46.748;8.102;2022-11-15T12:28:52;93452.00;;;16.10
15575;BMP180;7888;46.748;8.102;2022-11-15T12:34:04;93442.00;;;16.20
15575;BMP180;7888;46.748;8.102;2022-11-15T12:36:43;93440.00;;;16.30
15575;BMP180;7888;46.748;8.102;2022-11-15T12:39:11;93425.00;;;16.30
15575;BMP180;7888;46.748;8.102;2022-11-15T12:59:57;93390.00;;;16.60
15575;BMP180;7888;46.748;8.102;2022-11-15T13:02:30;93388.00;;;16.70
15575;BMP180;7888;46.748;8.102;2022-11-15T13:17:53;93361.00;;;16.90
15575;BMP180;7888;46.748;8.102;2022-11-15T13:22:51;93340.00;;;17.00
15575;BMP180;7888;46.748;8.102;2022-11-15T13:27:49;93318.00;;;17.10
15575;BMP180;7888;46.748;8.102;2022-11-15T13:30:30;93319.00;;;17.10
15575;BMP180;7888;46.748;8.102;2022-11-15T13:33:07;93298.00;;;17.10
15575;BMP180;7888;46.748;8.102;2022-11-15T13:35:40;93302.00;;;17.20
15575;BMP180;7888;46.748;8.102;2022-11-15T13:38:27;93300.00;;;17.20
15575;BMP180;7888;46.748;8.102;2022-11-15T13:40:55;93308.00;;;17.20
15575;BMP180;7888;46.748;8.102;2022-11-15T13:46:13;93303.00;;;17.10
15575;BMP180;7888;46.748;8.102;2022-11-15T13:48:42;93291.00;;;17.10
15575;BMP180;7888;46.748;8.102;2022-11-15T13:53:49;93284.00;;;17.10
15575;BMP180;7888;46.748;8.102;2022-11-15T13:56:20;93270.00;;;17.10
15575;BMP180;7888;46.748;8.102;2022-11-15T13:58:46;93268.00;;;17.20
15575;BMP180;7888;46.748;8.102;2022-11-15T14:01:18;93267.00;;;17.20
15575;BMP180;7888;46.748;8.102;2022-11-15T14:03:59;93267.00;;;17.10
15575;BMP180;7888;46.748;8.102;2022-11-15T14:06:30;93270.00;;;17.20
15575;BMP180;7888;46.748;8.102;2022-11-15T14:11:57;93275.00;;;17.20
15575;BMP180;7888;46.748;8.102;2022-11-15T14:14:28;93281.00;;;17.20
15575;BMP180;7888;46.748;8.102;2022-11-15T14:17:00;93254.00;;;17.20
15575;BMP180;7888;46.748;8.102;2022-11-15T14:22:22;93270.00;;;17.10
15575;BMP180;7888;46.748;8.102;2022-11-15T14:25:17;93271.00;;;17.10
15575;BMP180;7888;46.748;8.102;2022-11-15T14:28:10;93267.00;;;17.10
15575;BMP180;7888;46.748;8.102;2022-11-15T14:30:36;93266.00;;;17.20
15575;BMP180;7888;46.748;8.102;2022-11-15T14:33:30;93261.00;;;17.10
15575;BMP180;7888;46.748;8.102;2022-11-15T14:36:03;93262.00;;;17.10
15575;BMP180;7888;46.748;8.102;2022-11-15T14:38:29;93264.00;;;17.20
15575;BMP180;7888;46.748;8.102;2022-11-15T14:40:55;93259.00;;;17.20
15575;BMP180;7888;46.748;8.102;2022-11-15T14:43:22;93258.00;;;17.20
15575;BMP180;7888;46.748;8.102;2022-11-15T14:45:48;93258.00;;;17.30
15575;BMP180;7888;46.748;8.102;2022-11-15T14:48:14;93242.00;;;17.20
15575;BMP180;7888;46.748;8.102;2022-11-15T14:50:40;93238.00;;;17.30
15575;BMP180;7888;46.748;8.102;2022-11-15T14:53:06;93240.00;;;17.30
15575;BMP180;7888;46.748;8.102;2022-11-15T14:55:36;93243.00;;;17.30
15575;BMP180;7888;46.748;8.102;2022-11-15T14:58:04;93239.00;;;17.30
15575;BMP180;7888;46.748;8.102;2022-11-15T15:00:31;93229.00;;;17.30
15575;BMP180;7888;46.748;8.102;2022-11-15T15:02:58;93221.00;;;17.30
15575;BMP180;7888;46.748;8.102;2022-11-15T15:05:42;93228.00;;;17.30
15575;BMP180;7888;46.748;8.102;2022-11-15T15:08:09;93213.00;;;17.30
15575;BMP180;7888;46.748;8.102;2022-11-15T15:10:38;93213.00;;;17.20
15575;BMP180;7888;46.748;8.102;2022-11-15T15:13:08;93208.00;;;17.20
15575;BMP180;7888;46.748;8.102;2022-11-15T15:15:37;93205.00;;;17.10
15575;BMP180;7888;46.748;8.102;2022-11-15T15:18:04;93204.00;;;17.10
15575;BMP180;7888;46.748;8.102;2022-11-15T15:20:34;93188.00;;;17.00
15575;BMP180;7888;46.748;8.102;2022-11-15T15:23:00;93192.00;;;17.10
15575;BMP180;7888;46.748;8.102;2022-11-15T15:25:33;93181.00;;;17.00
15575;BMP180;7888;46.748;8.102;2022-11-15T15:28:01;93175.00;;;17.00
15575;BMP180;7888;46.748;8.102;2022-11-15T15:30:30;93168.00;;;16.90
15575;BMP180;7888;46.748;8.102;2022-11-15T15:32:56;93163.00;;;16.90
15575;BMP180;7888;46.748;8.102;2022-11-15T15:35:22;93164.00;;;16.90
15575;BMP180;7888;46.748;8.102;2022-11-15T15:37:49;93155.00;;;16.90
15575;BMP180;7888;46.748;8.102;2022-11-15T15:40:20;93133.00;;;16.90
15575;BMP180;7888;46.748;8.102;2022-11-15T15:42:48;93127.00;;;16.80
15575;BMP180;7888;46.748;8.102;2022-11-15T15:45:16;93143.00;;;16.80
15575;BMP180;7888;46.748;8.102;2022-11-15T15:47:43;93142.00;;;16.80
15575;BMP180;7888;46.748;8.102;2022-11-15T15:50:32;93151.00;;;16.70
15575;BMP180;7888;46.748;8.102;2022-11-15T15:53:01;93153.00;;;16.80
15575;BMP180;7888;46.748;8.102;2022-11-15T15:55:28;93140.00;;;16.80
15575;BMP180;7888;46.748;8.102;2022-11-15T15:57:55;93138.00;;;16.70
15575;BMP180;7888;46.748;8.102;2022-11-15T16:00:23;93157.00;;;16.70
15575;BMP180;7888;46.748;8.102;2022-11-15T16:02:51;93157.00;;;16.70
15575;BMP180;7888;46.748;8.102;2022-11-15T16:05:17;93151.00;;;16.70
15575;BMP180;7888;46.748;8.102;2022-11-15T16:07:43;93141.00;;;16.50
15575;BMP180;7888;46.748;8.102;2022-11-15T16:10:20;93127.00;;;16.50
15575;BMP180;7888;46.748;8.102;2022-11-15T16:12:47;93123.00;;;16.60
15575;BMP180;7888;46.748;8.102;2022-11-15T16:15:12;93119.00;;;16.60
15575;BMP180;7888;46.748;8.102;2022-11-15T16:17:48;93121.00;;;16.50
15575;BMP180;7888;46.748;8.102;2022-11-15T16:23:06;93101.00;;;16.50
15575;BMP180;7888;46.748;8.102;2022-11-15T16:25:49;93106.00;;;16.40
15575;BMP180;7888;46.748;8.102;2022-11-15T16:28:21;93108.00;;;16.40
15575;BMP180;7888;46.748;8.102;2022-11-15T16:30:48;93103.00;;;16.40
15575;BMP180;7888;46.748;8.102;2022-11-15T16:33:15;93094.00;;;16.40
15575;BMP180;7888;46.748;8.102;2022-11-15T16:35:43;93106.00;;;16.40
15575;BMP180;7888;46.748;8.102;2022-11-15T16:38:15;93108.00;;;16.40
15575;BMP180;7888;46.748;8.102;2022-11-15T16:40:41;93112.00;;;16.40
15575;BMP180;7888;46.748;8.102;2022-11-15T16:43:08;93110.00;;;16.40
15575;BMP180;7888;46.748;8.102;2022-11-15T16:45:34;93111.00;;;16.40
15575;BMP180;7888;46.748;8.102;2022-11-15T16:48:01;93115.00;;;16.40
15575;BMP180;7888;46.748;8.102;2022-11-15T16:50:33;93115.00;;;16.30
15575;BMP180;7888;46.748;8.102;2022-11-15T16:53:08;93087.00;;;16.30
15575;BMP180;7888;46.748;8.102;2022-11-15T16:55:33;93110.00;;;16.30
15575;BMP180;7888;46.748;8.102;2022-11-15T16:57:59;93087.00;;;16.20
15575;BMP180;7888;46.748;8.102;2022-11-15T17:00:26;93106.00;;;16.30